createdAt,value
2019-05-15T00:00:49.359Z,99.99
2019-05-15T00:01:49.329Z,99.99
2019-05-15T00:02:49.297Z,99.99
2019-05-15T00:03:49.500Z,99.99
2019-05-15T00:04:49.345Z,99.99
2019-05-15T00:05:49.704Z,99.99
2019-05-15T00:06:49.173Z,99.99
2019-05-15T00:07:49.138Z,99.99
2019-05-15T00:08:49.106Z,99.99
2019-05-15T00:09:49.334Z,99.99
2019-05-15T00:10:49.041Z,99.99
2019-05-15T00:11:49.010Z,99.99
2019-05-15T00:12:48.980Z,99.99
2019-05-15T00:13:48.946Z,99.99
2019-05-15T00:14:48.915Z,99.99
2019-05-15T00:15:48.889Z,99.99
2019-05-15T00:16:48.855Z,99.99
2019-05-15T00:17:48.818Z,99.99
2019-05-15T00:18:48.787Z,99.99
2019-05-15T00:19:48.764Z,99.99
2019-05-15T00:20:49.608Z,99.99
2019-05-15T00:21:49.118Z,99.99
2019-05-15T00:22:48.660Z,99.99
2019-05-15T00:23:49.369Z,99.99
2019-05-15T00:24:48.948Z,99.99
2019-05-15T00:25:48.869Z,99.99
2019-05-15T00:26:48.532Z,99.99
2019-05-15T00:27:49.150Z,99.99
2019-05-15T00:28:48.472Z,99.99
2019-05-15T00:29:48.726Z,99.99
2019-05-15T00:30:48.407Z,99.99
2019-05-15T00:31:48.678Z,99.99
2019-05-15T00:32:48.782Z,99.99
2019-05-15T00:33:48.418Z,99.99
2019-05-15T00:34:48.800Z,99.99
2019-05-15T00:35:48.620Z,99.99
2019-05-15T00:36:48.869Z,99.99
2019-05-15T00:37:49.310Z,99.99
2019-05-15T00:38:48.423Z,99.99
2019-05-15T00:39:48.611Z,99.99
2019-05-15T00:40:49.573Z,99.99
2019-05-15T00:41:54.096Z,99.99
2019-05-15T00:42:48.756Z,99.99
2019-05-15T00:43:49.421Z,99.99
2019-05-15T00:44:49.312Z,99.99
2019-05-15T00:45:48.851Z,99.99
2019-05-15T00:46:48.764Z,99.99
2019-05-15T00:47:48.723Z,99.99
2019-05-15T00:48:48.771Z,99.99
2019-05-15T00:49:48.758Z,99.99
2019-05-15T00:50:48.509Z,99.99
2019-05-15T00:51:48.740Z,99.99
2019-05-15T00:52:48.437Z,99.99
2019-05-15T00:53:48.298Z,99.99
2019-05-15T00:54:48.409Z,99.99
2019-05-15T00:55:48.638Z,99.99
2019-05-15T00:56:48.433Z,99.99
2019-05-15T00:57:48.483Z,99.99
2019-05-15T00:58:48.216Z,99.99
2019-05-15T00:59:48.379Z,99.99
2019-05-15T01:00:48.633Z,99.99
2019-05-15T01:01:48.742Z,99.99
2019-05-15T01:02:48.732Z,99.99
2019-05-15T01:03:49.328Z,99.99
2019-05-15T01:04:47.972Z,99.99
2019-05-15T01:05:48.091Z,99.99
2019-05-15T01:06:48.799Z,99.99
2019-05-15T01:07:48.026Z,99.99
2019-05-15T01:08:48.255Z,99.99
2019-05-15T01:09:48.688Z,99.99
2019-05-15T01:10:48.835Z,99.99
2019-05-15T01:11:48.779Z,99.99
2019-05-15T01:12:48.679Z,99.99
2019-05-15T01:13:48.166Z,99.99
2019-05-15T01:14:48.944Z,99.99
2019-05-15T01:15:48.984Z,99.99
2019-05-15T01:16:48.982Z,99.99
2019-05-15T01:17:49.057Z,99.99
2019-05-15T01:18:48.978Z,99.99
2019-05-15T01:19:48.218Z,99.99
2019-05-15T01:20:49.094Z,99.99
2019-05-15T01:21:48.072Z,99.99
2019-05-15T01:22:48.531Z,99.99
2019-05-15T01:23:48.393Z,99.99
2019-05-15T01:24:48.524Z,99.99
2019-05-15T01:25:48.221Z,99.99
2019-05-15T01:26:49.022Z,99.99
2019-05-15T01:27:48.843Z,99.99
2019-05-15T01:28:49.248Z,99.99
2019-05-15T01:29:49.130Z,99.99
2019-05-15T01:30:48.449Z,99.99
2019-05-15T01:31:48.623Z,99.99
2019-05-15T01:32:48.479Z,99.99
2019-05-15T01:33:48.087Z,99.99
2019-05-15T01:34:46.345Z,99.99
2019-05-15T01:35:48.581Z,99.99
2019-05-15T01:36:48.688Z,99.99
2019-05-15T01:37:48.176Z,99.99
2019-05-15T01:38:48.080Z,99.99
2019-05-15T01:39:48.420Z,99.99
2019-05-15T01:40:48.426Z,99.99
2019-05-15T01:41:49.337Z,99.99
2019-05-15T01:42:46.085Z,99.99
2019-05-15T01:43:48.717Z,99.99
2019-05-15T01:44:48.252Z,99.99
2019-05-15T01:45:48.130Z,99.99
2019-05-15T01:46:48.129Z,99.99
2019-05-15T01:47:47.943Z,99.99
2019-05-15T01:48:45.892Z,99.99
2019-05-15T01:49:45.857Z,99.99
2019-05-15T01:50:45.826Z,99.99
2019-05-15T01:51:47.830Z,99.99
2019-05-15T01:52:47.893Z,99.99
2019-05-15T01:53:47.851Z,99.99
2019-05-15T01:54:45.696Z,99.99
2019-05-15T01:55:45.662Z,99.99
2019-05-15T01:56:45.628Z,99.99
2019-05-15T01:57:45.596Z,99.99
2019-05-15T01:58:45.564Z,99.99
2019-05-15T01:59:54.782Z,99.99
2019-05-15T02:00:45.498Z,99.99
2019-05-15T02:01:45.469Z,99.99
2019-05-15T02:02:45.445Z,99.99
2019-05-15T02:03:45.401Z,99.99
2019-05-15T02:04:45.368Z,99.99
2019-05-15T02:05:45.336Z,99.99
2019-05-15T02:06:45.303Z,99.99
2019-05-15T02:07:45.271Z,99.99
2019-05-15T02:08:45.238Z,99.99
2019-05-15T02:09:45.204Z,99.99
2019-05-15T02:10:45.183Z,99.99
2019-05-15T02:11:45.142Z,99.99
2019-05-15T02:12:45.105Z,99.99
2019-05-15T02:13:45.075Z,99.99
2019-05-15T02:14:45.046Z,99.99
2019-05-15T02:15:45.009Z,99.99
2019-05-15T02:16:44.979Z,99.99
2019-05-15T02:17:44.944Z,99.99
2019-05-15T02:18:44.911Z,99.99
2019-05-15T02:19:44.879Z,99.99
2019-05-15T02:20:44.845Z,99.99
2019-05-15T02:21:44.813Z,99.99
2019-05-15T02:22:44.780Z,99.99
2019-05-15T02:23:44.749Z,99.99
2019-05-15T02:24:44.715Z,99.99
2019-05-15T02:25:44.681Z,99.99
2019-05-15T02:26:44.650Z,99.99
2019-05-15T02:27:44.617Z,99.99
2019-05-15T02:28:44.584Z,99.99
2019-05-15T02:29:44.552Z,99.99
2019-05-15T02:30:44.520Z,99.99
2019-05-15T02:31:44.493Z,99.99
2019-05-15T02:32:44.453Z,99.99
2019-05-15T02:33:44.422Z,99.99
2019-05-15T02:34:44.389Z,99.99
2019-05-15T02:35:44.356Z,99.99
2019-05-15T02:36:44.321Z,99.99
2019-05-15T02:37:44.295Z,99.99
2019-05-15T02:38:44.269Z,99.99
2019-05-15T02:39:44.225Z,99.99
2019-05-15T02:40:44.190Z,99.99
2019-05-15T02:41:44.160Z,99.99
2019-05-15T02:42:44.130Z,99.99
2019-05-15T02:43:44.095Z,99.99
2019-05-15T02:44:44.066Z,99.99
2019-05-15T02:45:44.027Z,99.99
2019-05-15T02:46:43.995Z,99.99
2019-05-15T02:47:43.962Z,99.99
2019-05-15T02:48:43.929Z,99.99
2019-05-15T02:49:43.896Z,99.99
2019-05-15T02:50:43.863Z,99.99
2019-05-15T02:51:43.832Z,99.99
2019-05-15T02:52:45.542Z,99.99
2019-05-15T02:53:43.767Z,99.99
2019-05-15T02:54:43.732Z,99.99
2019-05-15T02:55:43.699Z,99.99
2019-05-15T02:56:43.674Z,99.99
2019-05-15T02:57:43.632Z,99.99
2019-05-15T02:58:43.599Z,99.99
2019-05-15T02:59:43.568Z,99.99
2019-05-15T03:00:48.151Z,99.99
2019-05-15T03:01:43.501Z,99.99
2019-05-15T03:02:43.467Z,99.99
2019-05-15T03:03:43.434Z,99.99
2019-05-15T03:04:43.406Z,99.99
2019-05-15T03:05:43.369Z,99.99
2019-05-15T03:06:43.336Z,99.99
2019-05-15T03:07:43.304Z,99.99
2019-05-15T03:08:43.271Z,99.99
2019-05-15T03:09:43.237Z,99.99
2019-05-15T03:10:43.203Z,99.99
2019-05-15T03:11:43.176Z,99.99
2019-05-15T03:12:43.139Z,99.99
2019-05-15T03:13:43.105Z,99.99
2019-05-15T03:14:43.074Z,99.99
2019-05-15T03:15:43.038Z,99.99
2019-05-15T03:16:43.004Z,99.99
2019-05-15T03:17:42.973Z,99.99
2019-05-15T03:18:42.940Z,99.99
2019-05-15T03:19:42.913Z,99.99
2019-05-15T03:20:42.876Z,99.99
2019-05-15T03:21:42.840Z,99.99
2019-05-15T03:22:42.806Z,99.99
2019-05-15T03:23:42.777Z,99.99
2019-05-15T03:24:42.740Z,99.99
2019-05-15T03:25:42.706Z,99.99
2019-05-15T03:26:42.681Z,99.99
2019-05-15T03:27:42.641Z,99.99
2019-05-15T03:28:42.608Z,99.99
2019-05-15T03:29:42.574Z,99.99
2019-05-15T03:31:13.464Z,99.99
2019-05-15T03:31:58.426Z,99.99
2019-05-15T03:32:53.035Z,99.99
2019-05-15T03:33:45.459Z,99.99
2019-05-15T03:34:47.749Z,99.99
2019-05-15T03:35:44.105Z,99.99
2019-05-15T03:36:45.194Z,99.99
2019-05-15T03:37:42.314Z,99.99
2019-05-15T03:38:42.279Z,99.99
2019-05-15T03:39:46.589Z,99.99
2019-05-15T03:40:42.226Z,99.99
2019-05-15T03:41:42.176Z,99.99
2019-05-15T03:42:42.144Z,99.99
2019-05-15T03:43:42.112Z,99.99
2019-05-15T03:44:42.078Z,99.99
2019-05-15T03:45:42.045Z,99.99
2019-05-15T03:46:42.010Z,99.99
2019-05-15T03:47:41.979Z,99.99
2019-05-15T03:48:41.944Z,99.99
2019-05-15T03:49:41.913Z,99.99
2019-05-15T03:50:41.886Z,99.99
2019-05-15T03:51:45.749Z,99.99
2019-05-15T03:52:41.813Z,99.99
2019-05-15T03:53:41.780Z,99.99
2019-05-15T03:54:41.748Z,99.99
2019-05-15T03:55:41.724Z,99.99
2019-05-15T03:56:41.681Z,99.99
2019-05-15T03:57:41.648Z,99.99
2019-05-15T03:58:41.614Z,99.99
2019-05-15T03:59:41.583Z,99.99
2019-05-15T04:00:41.547Z,99.99
2019-05-15T04:01:43.770Z,99.99
2019-05-15T04:02:41.481Z,99.99
2019-05-15T04:03:41.450Z,99.99
2019-05-15T04:04:41.416Z,99.99
2019-05-15T04:05:41.385Z,99.99
2019-05-15T04:06:41.351Z,99.99
2019-05-15T04:07:41.319Z,99.99
2019-05-15T04:08:41.285Z,99.99
2019-05-15T04:09:41.251Z,99.99
2019-05-15T04:10:41.219Z,99.99
2019-05-15T04:11:41.184Z,99.99
2019-05-15T04:12:41.157Z,99.99
2019-05-15T04:13:41.120Z,99.99
2019-05-15T04:14:41.087Z,99.99
2019-05-15T04:15:41.055Z,99.99
2019-05-15T04:16:41.019Z,99.99
2019-05-15T04:17:40.988Z,99.99
2019-05-15T04:18:40.959Z,99.99
2019-05-15T04:19:40.921Z,99.99
2019-05-15T04:20:41.075Z,99.99
2019-05-15T04:21:44.756Z,99.99
2019-05-15T04:22:40.824Z,99.99
2019-05-15T04:23:40.799Z,99.99
2019-05-15T04:24:40.759Z,99.99
2019-05-15T04:25:40.729Z,99.99
2019-05-15T04:26:40.693Z,99.99
2019-05-15T04:27:40.659Z,99.99
2019-05-15T04:28:41.910Z,99.99
2019-05-15T04:29:40.597Z,99.99
2019-05-15T04:30:40.575Z,99.99
2019-05-15T04:31:51.789Z,99.99
2019-05-15T04:32:40.697Z,99.99
2019-05-15T04:33:40.668Z,99.99
2019-05-15T04:34:40.435Z,99.99
2019-05-15T04:35:40.696Z,99.99
2019-05-15T04:36:44.333Z,99.99
2019-05-15T04:37:41.139Z,99.99
2019-05-15T04:38:40.305Z,99.99
2019-05-15T04:39:40.311Z,99.99
2019-05-15T04:40:40.268Z,99.99
2019-05-15T04:41:40.211Z,99.99
2019-05-15T04:42:40.238Z,99.99
2019-05-15T04:43:44.884Z,99.99
2019-05-15T04:44:40.121Z,99.99
2019-05-15T04:45:40.095Z,99.99
2019-05-15T04:46:40.038Z,99.99
2019-05-15T04:47:40.306Z,99.99
2019-05-15T04:48:40.351Z,99.99
2019-05-15T04:49:39.943Z,99.99
2019-05-15T04:50:40.468Z,99.99
2019-05-15T04:51:39.878Z,99.99
2019-05-15T04:52:43.381Z,99.99
2019-05-15T04:53:40.123Z,99.99
2019-05-15T04:54:40.341Z,99.99
2019-05-15T04:55:40.593Z,99.99
2019-05-15T04:56:40.263Z,99.99
2019-05-15T04:57:40.700Z,99.99
2019-05-15T04:58:39.950Z,99.99
2019-05-15T04:59:39.620Z,99.99
2019-05-15T05:00:40.125Z,99.99
2019-05-15T05:01:40.313Z,99.99
2019-05-15T05:02:40.589Z,99.99
2019-05-15T05:03:39.816Z,99.99
2019-05-15T05:04:39.463Z,99.99
2019-05-15T05:05:39.433Z,99.99
2019-05-15T05:06:39.397Z,99.99
2019-05-15T05:07:39.761Z,99.99
2019-05-15T05:08:39.988Z,99.99
2019-05-15T05:09:39.375Z,99.99
2019-05-15T05:10:39.657Z,99.99
2019-05-15T05:11:39.239Z,99.99
2019-05-15T05:12:42.061Z,99.99
2019-05-15T05:13:39.665Z,99.99
2019-05-15T05:14:39.284Z,99.99
2019-05-15T05:15:39.113Z,99.99
2019-05-15T05:16:39.543Z,99.99
2019-05-15T05:17:39.500Z,99.99
2019-05-15T05:18:41.460Z,99.99
2019-05-15T05:19:40.183Z,99.99
2019-05-15T05:20:38.956Z,99.99
2019-05-15T05:21:38.925Z,99.99
2019-05-15T05:22:39.568Z,95.84
2019-05-15T05:23:38.864Z,93.27
2019-05-15T05:24:38.831Z,86.27
2019-05-15T05:25:38.909Z,82.73
2019-05-15T05:26:38.772Z,77.38
2019-05-15T05:27:38.741Z,72.45
2019-05-15T05:28:38.712Z,68.00
2019-05-15T05:29:38.774Z,66.03
2019-05-15T05:30:38.717Z,62.97
2019-05-15T05:31:39.248Z,62.90
2019-05-15T05:32:39.292Z,61.19
2019-05-15T05:33:38.570Z,60.26
2019-05-15T05:34:39.089Z,60.13
2019-05-15T05:35:38.812Z,57.26
2019-05-15T05:36:38.764Z,55.94
2019-05-15T05:37:39.192Z,53.67
2019-05-15T05:38:38.887Z,52.81
2019-05-15T05:39:39.471Z,51.75
2019-05-15T05:40:38.586Z,51.56
2019-05-15T05:41:39.196Z,51.28
2019-05-15T05:42:39.111Z,50.82
2019-05-15T05:43:38.586Z,50.34
2019-05-15T05:44:40.715Z,49.26
2019-05-15T05:45:38.405Z,50.48
2019-05-15T05:46:39.716Z,50.74
2019-05-15T05:47:38.505Z,50.46
2019-05-15T05:48:38.506Z,51.70
2019-05-15T05:49:38.366Z,52.37
2019-05-15T05:50:38.607Z,51.73
2019-05-15T05:51:38.694Z,50.67
2019-05-15T05:52:39.064Z,50.93
2019-05-15T05:53:38.414Z,51.22
2019-05-15T05:54:38.369Z,52.18
2019-05-15T05:55:38.460Z,51.54
2019-05-15T05:56:38.070Z,51.44
2019-05-15T05:57:38.503Z,50.79
2019-05-15T05:58:38.943Z,48.88
2019-05-15T05:59:38.671Z,49.45
2019-05-15T06:00:39.313Z,49.55
2019-05-15T06:01:43.697Z,49.00
2019-05-15T06:02:46.945Z,48.07
2019-05-15T06:03:38.530Z,47.01
2019-05-15T06:04:38.425Z,46.14
2019-05-15T06:05:38.898Z,45.98
2019-05-15T06:06:38.424Z,45.88
2019-05-15T06:07:38.770Z,44.84
2019-05-15T06:08:38.869Z,44.68
2019-05-15T06:09:38.083Z,43.64
2019-05-15T06:10:38.551Z,41.93
2019-05-15T06:11:38.064Z,42.43
2019-05-15T06:12:38.816Z,40.68
2019-05-15T06:13:38.285Z,40.95
2019-05-15T06:14:38.087Z,40.89
2019-05-15T06:15:38.058Z,41.83
2019-05-15T06:16:38.740Z,42.47
2019-05-15T06:17:39.176Z,43.73
2019-05-15T06:18:38.730Z,43.34
2019-05-15T06:19:38.606Z,43.53
2019-05-15T06:20:39.487Z,42.79
2019-05-15T06:21:39.230Z,42.50
2019-05-15T06:22:38.840Z,41.54
2019-05-15T06:23:44.170Z,40.79
2019-05-15T06:24:37.926Z,40.79
2019-05-15T06:25:39.089Z,41.02
2019-05-15T06:26:38.622Z,39.97
2019-05-15T06:27:39.101Z,40.18
2019-05-15T06:28:39.441Z,38.84
2019-05-15T06:29:37.848Z,38.35
2019-05-15T06:30:38.652Z,39.03
2019-05-15T06:31:38.786Z,38.76
2019-05-15T06:32:39.952Z,38.29
2019-05-15T06:33:38.392Z,36.47
2019-05-15T06:34:37.999Z,35.89
2019-05-15T06:35:39.434Z,35.79
2019-05-15T06:36:39.249Z,35.85
2019-05-15T06:37:39.542Z,36.72
2019-05-15T06:38:39.277Z,37.51
2019-05-15T06:39:39.052Z,37.87
2019-05-15T06:40:39.427Z,38.18
2019-05-15T06:41:39.111Z,38.68
2019-05-15T06:42:39.347Z,38.02
2019-05-15T06:43:38.912Z,36.99
2019-05-15T06:44:38.813Z,36.41
2019-05-15T06:45:38.027Z,37.37
2019-05-15T06:46:39.277Z,36.31
2019-05-15T06:47:39.232Z,37.08
2019-05-15T06:48:37.983Z,36.41
2019-05-15T06:49:37.807Z,36.89
2019-05-15T06:50:38.223Z,37.56
2019-05-15T06:51:37.904Z,37.37
2019-05-15T06:52:38.004Z,38.33
2019-05-15T06:53:38.513Z,37.56
2019-05-15T06:54:37.779Z,37.64
2019-05-15T06:55:38.889Z,38.31
2019-05-15T06:56:38.938Z,39.51
2019-05-15T06:57:39.389Z,40.95
2019-05-15T06:58:38.428Z,40.85
2019-05-15T06:59:38.947Z,41.35
2019-05-15T07:00:39.005Z,41.95
2019-05-15T07:01:38.535Z,40.11
2019-05-15T07:02:38.252Z,40.01
2019-05-15T07:03:39.089Z,40.01
2019-05-15T07:04:38.329Z,40.97
2019-05-15T07:05:38.528Z,41.93
2019-05-15T07:06:38.091Z,42.05
2019-05-15T07:07:38.794Z,39.99
2019-05-15T07:08:38.242Z,40.99
2019-05-15T07:09:37.982Z,41.20
2019-05-15T07:10:37.783Z,40.07
2019-05-15T07:11:38.642Z,39.22
2019-05-15T07:12:38.802Z,38.66
2019-05-15T07:13:38.239Z,37.89
2019-05-15T07:14:37.940Z,38.06
2019-05-15T07:15:38.462Z,39.26
2019-05-15T07:16:38.754Z,40.03
2019-05-15T07:17:38.916Z,40.37
2019-05-15T07:18:38.790Z,42.64
2019-05-15T07:19:38.990Z,44.05
2019-05-15T07:20:38.903Z,42.53
2019-05-15T07:21:38.872Z,40.89
2019-05-15T07:22:39.148Z,40.97
2019-05-15T07:23:38.631Z,41.95
2019-05-15T07:24:38.284Z,41.45
2019-05-15T07:25:38.826Z,41.05
2019-05-15T07:26:38.951Z,41.87
2019-05-15T07:27:38.716Z,43.98
2019-05-15T07:28:38.004Z,44.10
2019-05-15T07:29:38.387Z,43.43
2019-05-15T07:30:40.818Z,43.45
2019-05-15T07:31:38.312Z,42.87
2019-05-15T07:32:36.211Z,41.91
2019-05-15T07:33:42.580Z,42.03
2019-05-15T07:34:37.901Z,41.47
2019-05-15T07:35:38.503Z,41.28
2019-05-15T07:36:38.779Z,41.39
2019-05-15T07:37:38.465Z,40.80
2019-05-15T07:38:36.101Z,40.81
2019-05-15T07:39:38.199Z,41.99
2019-05-15T07:40:38.448Z,41.20
2019-05-15T07:41:36.040Z,41.66
2019-05-15T07:42:38.673Z,42.07
2019-05-15T07:43:38.243Z,40.84
2019-05-15T07:44:38.643Z,41.03
2019-05-15T07:45:42.512Z,40.16
2019-05-15T07:46:38.105Z,39.64
2019-05-15T07:47:38.339Z,40.43
2019-05-15T07:48:38.139Z,41.06
2019-05-15T07:49:35.891Z,40.99
2019-05-15T07:50:38.451Z,40.99
2019-05-15T07:51:38.012Z,41.03
2019-05-15T07:52:35.857Z,39.97
2019-05-15T07:53:38.217Z,39.41
2019-05-15T07:54:38.146Z,38.83
2019-05-15T07:55:39.038Z,37.06
2019-05-15T07:56:37.961Z,38.60
2019-05-15T07:57:38.890Z,39.54
2019-05-15T07:58:35.729Z,40.39
2019-05-15T07:59:35.710Z,40.37
2019-05-15T08:00:35.690Z,41.06
2019-05-15T08:01:35.673Z,41.38
2019-05-15T08:02:37.822Z,40.80
2019-05-15T08:03:39.570Z,39.93
2019-05-15T08:04:37.915Z,40.01
2019-05-15T08:05:38.072Z,40.97
2019-05-15T08:06:38.592Z,40.58
2019-05-15T08:07:35.561Z,41.05
2019-05-15T08:08:35.540Z,42.66
2019-05-15T08:09:35.522Z,43.04
2019-05-15T08:10:35.521Z,42.77
2019-05-15T08:11:35.485Z,41.33
2019-05-15T08:12:35.465Z,41.91
2019-05-15T08:13:35.447Z,40.88
2019-05-15T08:14:35.430Z,41.06
2019-05-15T08:15:35.409Z,40.99
2019-05-15T08:16:35.389Z,40.95
2019-05-15T08:17:35.370Z,40.97
2019-05-15T08:18:35.350Z,41.02
2019-05-15T08:19:35.332Z,41.22
2019-05-15T08:20:35.311Z,42.00
2019-05-15T08:21:35.294Z,42.10
2019-05-15T08:22:38.071Z,41.82
2019-05-15T08:23:35.254Z,42.03
2019-05-15T08:24:35.275Z,40.88
2019-05-15T08:25:35.576Z,41.45
2019-05-15T08:26:35.195Z,40.97
2019-05-15T08:27:35.176Z,42.10
2019-05-15T08:28:35.156Z,42.70
2019-05-15T08:29:35.137Z,41.95
2019-05-15T08:30:35.117Z,42.05
2019-05-15T08:31:35.123Z,40.51
2019-05-15T08:32:35.106Z,39.83
2019-05-15T08:33:35.058Z,40.14
2019-05-15T08:34:35.040Z,39.89
2019-05-15T08:35:35.021Z,38.43
2019-05-15T08:36:35.007Z,38.89
2019-05-15T08:37:34.981Z,39.41
2019-05-15T08:38:34.964Z,38.14
2019-05-15T08:39:34.946Z,37.46
2019-05-15T08:40:34.925Z,38.41
2019-05-15T08:41:34.908Z,39.18
2019-05-15T08:42:34.889Z,39.26
2019-05-15T08:43:34.872Z,39.91
2019-05-15T08:44:34.850Z,39.16
2019-05-15T08:45:34.831Z,39.09
2019-05-15T08:46:34.814Z,38.74
2019-05-15T08:47:34.794Z,38.12
2019-05-15T08:48:34.776Z,39.26
2019-05-15T08:49:34.777Z,38.89
2019-05-15T08:50:34.742Z,38.22
2019-05-15T08:51:34.720Z,38.76
2019-05-15T08:52:34.713Z,41.12
2019-05-15T08:53:34.682Z,43.38
2019-05-15T08:54:34.662Z,43.48
2019-05-15T08:55:34.644Z,44.24
2019-05-15T08:56:34.626Z,44.48
2019-05-15T08:57:34.605Z,42.00
2019-05-15T08:58:34.587Z,41.28
2019-05-15T08:59:34.568Z,40.05
2019-05-15T09:00:34.588Z,38.12
2019-05-15T09:01:34.530Z,38.20
2019-05-15T09:02:34.509Z,38.59
2019-05-15T09:03:34.489Z,38.59
2019-05-15T09:04:35.222Z,38.89
2019-05-15T09:05:34.451Z,38.43
2019-05-15T09:06:34.433Z,37.93
2019-05-15T09:07:34.412Z,38.79
2019-05-15T09:08:34.395Z,38.39
2019-05-15T09:09:34.374Z,38.59
2019-05-15T09:10:34.356Z,37.81
2019-05-15T09:11:34.338Z,37.12
2019-05-15T09:12:34.317Z,37.99
2019-05-15T09:13:34.302Z,39.43
2019-05-15T09:14:34.280Z,39.16
2019-05-15T09:15:34.266Z,38.89
2019-05-15T09:16:34.241Z,37.93
2019-05-15T09:17:34.222Z,37.27
2019-05-15T09:18:34.204Z,37.14
2019-05-15T09:19:34.185Z,37.99
2019-05-15T09:20:34.176Z,38.53
2019-05-15T09:21:34.145Z,39.76
2019-05-15T09:22:34.131Z,39.95
2019-05-15T09:23:34.109Z,39.61
2019-05-15T09:24:34.089Z,38.85
2019-05-15T09:25:34.069Z,37.74
2019-05-15T09:26:35.561Z,37.46
2019-05-15T09:27:34.031Z,36.95
2019-05-15T09:28:34.012Z,37.60
2019-05-15T09:29:33.992Z,37.60
2019-05-15T09:30:33.974Z,36.97
2019-05-15T09:31:33.956Z,35.71
2019-05-15T09:32:33.935Z,35.71
2019-05-15T09:33:33.918Z,36.19
2019-05-15T09:34:48.092Z,36.51
2019-05-15T09:35:33.880Z,36.39
2019-05-15T09:36:33.859Z,38.10
2019-05-15T09:37:33.941Z,37.95
2019-05-15T09:38:33.824Z,37.19
2019-05-15T09:39:33.804Z,35.67
2019-05-15T09:40:45.338Z,35.02
2019-05-15T09:41:33.767Z,34.45
2019-05-15T09:42:33.748Z,33.02
2019-05-15T09:43:33.731Z,33.02
2019-05-15T09:44:33.713Z,33.66
2019-05-15T09:45:33.701Z,33.66
2019-05-15T09:46:33.676Z,34.30
2019-05-15T09:47:33.663Z,35.56
2019-05-15T09:48:33.642Z,35.27
2019-05-15T09:49:33.623Z,35.10
2019-05-15T09:50:33.606Z,35.54
2019-05-15T09:51:33.589Z,36.05
2019-05-15T09:52:33.569Z,37.30
2019-05-15T09:53:33.553Z,37.20
2019-05-15T09:54:33.535Z,37.12
2019-05-15T09:55:33.515Z,37.20
2019-05-15T09:56:33.498Z,37.95
2019-05-15T09:57:33.477Z,38.84
2019-05-15T09:58:33.459Z,39.06
2019-05-15T09:59:33.445Z,36.83
2019-05-15T10:00:33.429Z,37.95
2019-05-15T10:01:33.405Z,38.78
2019-05-15T10:02:33.385Z,40.77
2019-05-15T10:03:33.366Z,40.91
2019-05-15T10:04:33.348Z,39.58
2019-05-15T10:05:33.323Z,38.28
2019-05-15T10:06:33.306Z,37.64
2019-05-15T10:07:33.287Z,37.98
2019-05-15T10:08:33.265Z,36.11
2019-05-15T10:09:33.247Z,35.68
2019-05-15T10:10:33.229Z,37.85
2019-05-15T10:11:33.207Z,40.12
2019-05-15T10:12:35.168Z,40.79
2019-05-15T10:13:33.168Z,40.93
2019-05-15T10:14:33.159Z,40.37
2019-05-15T10:15:33.129Z,39.91
2019-05-15T10:16:33.117Z,38.89
2019-05-15T10:17:33.089Z,38.45
2019-05-15T10:18:33.131Z,37.66
2019-05-15T10:19:33.052Z,37.59
2019-05-15T10:20:33.032Z,39.08
2019-05-15T10:21:33.010Z,39.97
2019-05-15T10:22:32.990Z,39.97
2019-05-15T10:23:32.972Z,40.56
2019-05-15T10:24:32.951Z,40.06
2019-05-15T10:25:32.932Z,40.79
2019-05-15T10:26:32.913Z,42.54
2019-05-15T10:27:32.894Z,41.33
2019-05-15T10:28:32.872Z,40.28
2019-05-15T10:29:32.852Z,41.53
2019-05-15T10:30:32.832Z,40.73
2019-05-15T10:31:32.812Z,41.08
2019-05-15T10:32:32.792Z,42.23
2019-05-15T10:33:32.772Z,42.40
2019-05-15T10:34:32.752Z,43.17
2019-05-15T10:35:32.735Z,43.31
2019-05-15T10:36:32.711Z,42.10
2019-05-15T10:37:32.691Z,40.49
2019-05-15T10:38:32.671Z,39.12
2019-05-15T10:39:32.650Z,39.76
2019-05-15T10:40:32.634Z,41.00
2019-05-15T10:41:32.610Z,40.99
2019-05-15T10:42:32.589Z,41.27
2019-05-15T10:43:32.568Z,40.99
2019-05-15T10:44:32.548Z,40.60
2019-05-15T10:45:32.526Z,41.29
2019-05-15T10:46:32.506Z,41.20
2019-05-15T10:47:32.489Z,40.93
2019-05-15T10:48:32.542Z,40.93
2019-05-15T10:49:32.444Z,40.89
2019-05-15T10:50:32.425Z,41.46
2019-05-15T10:51:32.404Z,41.22
2019-05-15T10:52:32.381Z,40.73
2019-05-15T10:53:32.360Z,40.06
2019-05-15T10:54:32.343Z,39.95
2019-05-15T10:55:32.320Z,39.87
2019-05-15T10:56:32.297Z,39.91
2019-05-15T10:57:32.283Z,38.29
2019-05-15T10:58:32.313Z,36.19
2019-05-15T10:59:32.236Z,35.89
2019-05-15T11:00:32.216Z,36.07
2019-05-15T11:01:32.198Z,37.02
2019-05-15T11:02:32.177Z,37.22
2019-05-15T11:03:34.929Z,38.18
2019-05-15T11:04:32.132Z,37.91
2019-05-15T11:05:44.524Z,38.49
2019-05-15T11:06:32.093Z,38.02
2019-05-15T11:07:32.074Z,37.27
2019-05-15T11:08:32.172Z,36.99
2019-05-15T11:09:32.031Z,36.27
2019-05-15T11:10:32.014Z,37.77
2019-05-15T11:11:31.994Z,39.22
2019-05-15T11:12:31.972Z,39.97
2019-05-15T11:13:31.952Z,40.02
2019-05-15T11:14:31.935Z,40.89
2019-05-15T11:15:31.913Z,40.62
2019-05-15T11:16:31.892Z,40.52
2019-05-15T11:17:31.879Z,40.33
2019-05-15T11:18:31.853Z,40.70
2019-05-15T11:19:35.962Z,41.39
2019-05-15T11:20:31.811Z,41.41
2019-05-15T11:21:31.790Z,39.51
2019-05-15T11:22:31.781Z,39.53
2019-05-15T11:23:31.749Z,39.12
2019-05-15T11:24:32.331Z,39.91
2019-05-15T11:25:31.708Z,38.68
2019-05-15T11:26:33.543Z,37.26
2019-05-15T11:27:31.666Z,37.99
2019-05-15T11:28:32.479Z,38.74
2019-05-15T11:29:31.625Z,39.43
2019-05-15T11:30:31.611Z,38.89
2019-05-15T11:31:31.624Z,38.33
2019-05-15T11:32:31.566Z,37.24
2019-05-15T11:33:31.581Z,37.62
2019-05-15T11:34:31.525Z,38.18
2019-05-15T11:35:31.505Z,39.53
2019-05-15T11:36:31.519Z,39.91
2019-05-15T11:37:31.465Z,39.41
2019-05-15T11:38:31.447Z,40.18
2019-05-15T11:39:31.425Z,39.58
2019-05-15T11:40:31.407Z,40.16
2019-05-15T11:41:31.384Z,40.62
2019-05-15T11:42:31.367Z,40.81
2019-05-15T11:43:31.348Z,41.00
2019-05-15T11:44:31.326Z,41.79
2019-05-15T11:45:31.305Z,40.93
2019-05-15T11:46:31.290Z,40.08
2019-05-15T11:47:31.264Z,39.41
2019-05-15T11:48:31.243Z,39.81
2019-05-15T11:49:31.222Z,40.08
2019-05-15T11:50:31.203Z,39.78
2019-05-15T11:51:31.183Z,40.08
2019-05-15T11:52:31.167Z,40.95
2019-05-15T11:53:31.143Z,40.06
2019-05-15T11:54:31.122Z,39.66
2019-05-15T11:55:31.102Z,39.95
2019-05-15T11:56:31.083Z,40.73
2019-05-15T11:57:42.401Z,39.12
2019-05-15T11:58:31.042Z,38.37
2019-05-15T11:59:31.023Z,37.99
2019-05-15T12:00:31.003Z,38.68
2019-05-15T12:01:30.980Z,39.66
2019-05-15T12:02:30.963Z,38.14
2019-05-15T12:03:30.946Z,36.10
2019-05-15T12:04:34.039Z,36.10
2019-05-15T12:05:30.900Z,36.77
2019-05-15T12:06:30.880Z,36.49
2019-05-15T12:07:30.859Z,35.97
2019-05-15T12:08:30.842Z,36.83
2019-05-15T12:09:30.821Z,37.62
2019-05-15T12:10:30.802Z,37.99
2019-05-15T12:11:36.605Z,37.91
2019-05-15T12:12:32.038Z,37.26
2019-05-15T12:13:30.740Z,36.54
2019-05-15T12:14:30.721Z,36.91
2019-05-15T12:15:30.701Z,38.53
2019-05-15T12:16:30.687Z,38.72
2019-05-15T12:17:33.716Z,38.51
2019-05-15T12:18:30.641Z,38.81
2019-05-15T12:19:30.622Z,38.53
2019-05-15T12:20:30.601Z,37.57
2019-05-15T12:21:30.587Z,37.18
2019-05-15T12:22:30.560Z,37.01
2019-05-15T12:23:30.540Z,37.12
2019-05-15T12:24:35.231Z,37.01
2019-05-15T12:25:31.959Z,37.70
2019-05-15T12:26:30.485Z,35.93
2019-05-15T12:27:30.460Z,37.35
2019-05-15T12:28:30.439Z,37.84
2019-05-15T12:29:30.417Z,38.24
2019-05-15T12:30:30.398Z,38.04
2019-05-15T12:31:30.377Z,38.45
2019-05-15T12:32:36.052Z,38.64
2019-05-15T12:33:30.345Z,37.51
2019-05-15T12:34:30.326Z,37.10
2019-05-15T12:35:30.296Z,37.39
2019-05-15T12:36:51.310Z,37.99
2019-05-15T12:37:30.257Z,37.43
2019-05-15T12:38:30.232Z,36.97
2019-05-15T12:39:30.629Z,36.99
2019-05-15T13:00:29.946Z,37.20
2019-05-15T13:01:29.772Z,37.68
2019-05-15T13:02:29.752Z,38.04
2019-05-15T13:03:29.880Z,38.24
2019-05-15T13:04:29.711Z,38.54
2019-05-15T13:05:32.386Z,38.07
2019-05-15T13:06:29.675Z,37.20
2019-05-15T13:07:29.651Z,37.60
2019-05-15T13:08:29.630Z,37.32
2019-05-15T13:09:29.608Z,37.22
2019-05-15T13:10:29.591Z,37.02
2019-05-15T13:11:29.569Z,36.53
2019-05-15T13:12:29.550Z,36.82